sensor_id;sensor_type;location;lat;lon;timestamp;P1;durP1;ratioP1;P2;durP2;ratioP2
39314;SDS011;28703;44.412;11.918;2023-02-07T00:02:06;32.30;;;20.50;;
39314;SDS011;28703;44.412;11.918;2023-02-07T00:04:32;30.13;;;20.08;;
39314;SDS011;28703;44.412;11.918;2023-02-07T00:06:58;30.58;;;19.92;;
39314;SDS011;28703;44.412;11.918;2023-02-07T00:09:24;31.13;;;19.50;;
39314;SDS011;28703;44.412;11.918;2023-02-07T00:11:50;29.42;;;20.92;;
39314;SDS011;28703;44.412;11.918;2023-02-07T00:14:16;35.70;;;21.52;;
39314;SDS011;28703;44.412;11.918;2023-02-07T00:16:45;30.45;;;20.63;;
39314;SDS011;28703;44.412;11.918;2023-02-07T00:19:29;33.00;;;20.30;;
39314;SDS011;28703;44.412;11.918;2023-02-07T00:21:55;27.05;;;19.13;;
39314;SDS011;28703;44.412;11.918;2023-02-07T00:27:05;25.27;;;18.33;;
39314;SDS011;28703;44.412;11.918;2023-02-07T00:29:31;27.67;;;18.08;;
39314;SDS011;28703;44.412;11.918;2023-02-07T00:31:58;27.75;;;19.48;;
39314;SDS011;28703;44.412;11.918;2023-02-07T00:34:24;29.77;;;19.75;;
39314;SDS011;28703;44.412;11.918;2023-02-07T00:36:50;26.55;;;18.90;;
39314;SDS011;28703;44.412;11.918;2023-02-07T00:39:16;26.08;;;18.17;;
39314;SDS011;28703;44.412;11.918;2023-02-07T00:41:43;28.73;;;18.80;;
39314;SDS011;28703;44.412;11.918;2023-02-07T00:46:54;24.02;;;17.38;;
39314;SDS011;28703;44.412;11.918;2023-02-07T00:49:20;27.27;;;17.98;;
39314;SDS011;28703;44.412;11.918;2023-02-07T00:52:05;24.80;;;17.08;;
39314;SDS011;28703;44.412;11.918;2023-02-07T00:54:31;22.30;;;16.23;;
39314;SDS011;28703;44.412;11.918;2023-02-07T00:56:57;24.17;;;15.60;;
39314;SDS011;28703;44.412;11.918;2023-02-07T00:59:23;20.70;;;14.80;;
39314;SDS011;28703;44.412;11.918;2023-02-07T01:01:51;20.85;;;14.48;;
39314;SDS011;28703;44.412;11.918;2023-02-07T01:04:17;21.73;;;14.20;;
39314;SDS011;28703;44.412;11.918;2023-02-07T01:06:43;21.60;;;13.75;;
39314;SDS011;28703;44.412;11.918;2023-02-07T01:09:09;19.80;;;13.57;;
39314;SDS011;28703;44.412;11.918;2023-02-07T01:11:35;16.67;;;12.35;;
39314;SDS011;28703;44.412;11.918;2023-02-07T01:14:01;14.80;;;11.63;;
39314;SDS011;28703;44.412;11.918;2023-02-07T01:16:29;14.75;;;10.98;;
39314;SDS011;28703;44.412;11.918;2023-02-07T01:19:14;16.15;;;11.63;;
39314;SDS011;28703;44.412;11.918;2023-02-07T01:21:40;19.08;;;11.25;;
39314;SDS011;28703;44.412;11.918;2023-02-07T01:24:06;16.58;;;12.25;;
39314;SDS011;28703;44.412;11.918;2023-02-07T01:26:33;14.77;;;10.75;;
39314;SDS011;28703;44.412;11.918;2023-02-07T01:29:18;14.65;;;10.63;;
39314;SDS011;28703;44.412;11.918;2023-02-07T01:31:44;16.23;;;9.98;;
39314;SDS011;28703;44.412;11.918;2023-02-07T01:34:10;14.02;;;10.10;;
39314;SDS011;28703;44.412;11.918;2023-02-07T01:36:40;12.80;;;8.25;;
39314;SDS011;28703;44.412;11.918;2023-02-07T01:39:25;15.32;;;9.55;;
39314;SDS011;28703;44.412;11.918;2023-02-07T01:41:51;14.70;;;10.32;;
39314;SDS011;28703;44.412;11.918;2023-02-07T01:47:20;15.27;;;9.40;;
39314;SDS011;28703;44.412;11.918;2023-02-07T01:50:16;17.50;;;9.95;;
39314;SDS011;28703;44.412;11.918;2023-02-07T01:52:42;17.83;;;9.93;;
39314;SDS011;28703;44.412;11.918;2023-02-07T01:58:05;14.93;;;9.00;;
39314;SDS011;28703;44.412;11.918;2023-02-07T02:00:34;13.82;;;8.77;;
39314;SDS011;28703;44.412;11.918;2023-02-07T02:03:11;15.25;;;9.45;;
39314;SDS011;28703;44.412;11.918;2023-02-07T02:05:40;13.40;;;8.68;;
39314;SDS011;28703;44.412;11.918;2023-02-07T02:08:26;18.75;;;9.15;;
39314;SDS011;28703;44.412;11.918;2023-02-07T02:17:45;15.00;;;9.52;;
39314;SDS011;28703;44.412;11.918;2023-02-07T02:35:31;14.90;;;9.13;;
39314;SDS011;28703;44.412;11.918;2023-02-07T02:40:51;15.75;;;9.38;;
39314;SDS011;28703;44.412;11.918;2023-02-07T02:43:44;16.45;;;8.98;;
39314;SDS011;28703;44.412;11.918;2023-02-07T02:46:19;13.65;;;8.55;;
39314;SDS011;28703;44.412;11.918;2023-02-07T02:49:07;12.07;;;9.20;;
39314;SDS011;28703;44.412;11.918;2023-02-07T02:51:37;12.83;;;8.93;;
39314;SDS011;28703;44.412;11.918;2023-02-07T02:54:03;13.10;;;8.85;;
39314;SDS011;28703;44.412;11.918;2023-02-07T02:56:57;11.43;;;8.57;;
39314;SDS011;28703;44.412;11.918;2023-02-07T03:02:42;13.65;;;8.77;;
39314;SDS011;28703;44.412;11.918;2023-02-07T03:13:22;17.15;;;9.38;;
39314;SDS011;28703;44.412;11.918;2023-02-07T03:19:22;14.00;;;7.93;;
39314;SDS011;28703;44.412;11.918;2023-02-07T03:27:30;12.43;;;8.00;;
39314;SDS011;28703;44.412;11.918;2023-02-07T03:29:59;12.40;;;8.02;;
39314;SDS011;28703;44.412;11.918;2023-02-07T03:32:30;15.20;;;9.20;;
39314;SDS011;28703;44.412;11.918;2023-02-07T03:38:27;13.93;;;8.90;;
39314;SDS011;28703;44.412;11.918;2023-02-07T03:40:57;18.70;;;8.77;;
39314;SDS011;28703;44.412;11.918;2023-02-07T03:43:42;19.88;;;8.90;;
39314;SDS011;28703;44.412;11.918;2023-02-07T03:46:09;15.20;;;10.00;;
39314;SDS011;28703;44.412;11.918;2023-02-07T03:49:12;15.18;;;9.07;;
39314;SDS011;28703;44.412;11.918;2023-02-07T03:51:40;20.30;;;9.35;;
39314;SDS011;28703;44.412;11.918;2023-02-07T03:54:06;14.07;;;8.77;;
39314;SDS011;28703;44.412;11.918;2023-02-07T03:56:32;17.98;;;8.85;;
39314;SDS011;28703;44.412;11.918;2023-02-07T03:58:58;15.68;;;9.30;;
39314;SDS011;28703;44.412;11.918;2023-02-07T04:01:24;18.75;;;10.48;;
39314;SDS011;28703;44.412;11.918;2023-02-07T04:03:50;14.82;;;9.02;;
39314;SDS011;28703;44.412;11.918;2023-02-07T04:06:34;21.48;;;8.90;;
39314;SDS011;28703;44.412;11.918;2023-02-07T04:09:06;23.65;;;9.77;;
39314;SDS011;28703;44.412;11.918;2023-02-07T04:11:40;15.60;;;8.77;;
39314;SDS011;28703;44.412;11.918;2023-02-07T04:17:23;13.48;;;8.68;;
39314;SDS011;28703;44.412;11.918;2023-02-07T04:19:57;16.17;;;9.32;;
39314;SDS011;28703;44.412;11.918;2023-02-07T04:22:32;16.63;;;9.98;;
39314;SDS011;28703;44.412;11.918;2023-02-07T04:25:12;15.02;;;10.07;;
39314;SDS011;28703;44.412;11.918;2023-02-07T04:27:38;19.17;;;9.63;;
39314;SDS011;28703;44.412;11.918;2023-02-07T04:30:04;18.98;;;10.00;;
39314;SDS011;28703;44.412;11.918;2023-02-07T04:32:30;14.60;;;9.27;;
39314;SDS011;28703;44.412;11.918;2023-02-07T04:35:13;18.60;;;9.80;;
39314;SDS011;28703;44.412;11.918;2023-02-07T04:37:49;15.18;;;10.00;;
39314;SDS011;28703;44.412;11.918;2023-02-07T04:40:15;18.55;;;10.50;;
39314;SDS011;28703;44.412;11.918;2023-02-07T04:42:56;19.27;;;10.57;;
39314;SDS011;28703;44.412;11.918;2023-02-07T04:45:30;19.52;;;11.20;;
39314;SDS011;28703;44.412;11.918;2023-02-07T04:48:19;15.52;;;9.88;;
39314;SDS011;28703;44.412;11.918;2023-02-07T04:50:51;15.35;;;9.70;;
39314;SDS011;28703;44.412;11.918;2023-02-07T04:53:28;15.38;;;9.77;;
39314;SDS011;28703;44.412;11.918;2023-02-07T04:56:15;17.33;;;10.60;;
39314;SDS011;28703;44.412;11.918;2023-02-07T04:58:45;22.13;;;10.50;;
39314;SDS011;28703;44.412;11.918;2023-02-07T05:01:17;17.10;;;9.82;;
39314;SDS011;28703;44.412;11.918;2023-02-07T05:03:46;17.27;;;9.85;;
39314;SDS011;28703;44.412;11.918;2023-02-07T05:06:14;14.88;;;9.85;;
39314;SDS011;28703;44.412;11.918;2023-02-07T05:09:07;16.15;;;10.05;;
39314;SDS011;28703;44.412;11.918;2023-02-07T05:11:53;18.23;;;9.43;;
39314;SDS011;28703;44.412;11.918;2023-02-07T05:14:41;14.65;;;9.65;;
39314;SDS011;28703;44.412;11.918;2023-02-07T05:19:38;19.85;;;10.60;;
39314;SDS011;28703;44.412;11.918;2023-02-07T05:22:21;18.80;;;10.63;;
39314;SDS011;28703;44.412;11.918;2023-02-07T05:24:47;19.10;;;9.25;;
39314;SDS011;28703;44.412;11.918;2023-02-07T05:30:11;16.95;;;9.60;;
39314;SDS011;28703;44.412;11.918;2023-02-07T05:35:52;18.83;;;9.57;;
39314;SDS011;28703;44.412;11.918;2023-02-07T05:38:35;13.73;;;9.05;;
39314;SDS011;28703;44.412;11.918;2023-02-07T05:41:15;18.80;;;9.23;;
39314;SDS011;28703;44.412;11.918;2023-02-07T05:43:53;14.77;;;8.70;;
39314;SDS011;28703;44.412;11.918;2023-02-07T05:46:38;13.20;;;9.07;;
39314;SDS011;28703;44.412;11.918;2023-02-07T05:49:04;14.68;;;9.23;;
39314;SDS011;28703;44.412;11.918;2023-02-07T05:51:34;17.85;;;9.60;;
39314;SDS011;28703;44.412;11.918;2023-02-07T05:54:14;13.68;;;9.82;;
39314;SDS011;28703;44.412;11.918;2023-02-07T05:57:06;15.25;;;9.65;;
39314;SDS011;28703;44.412;11.918;2023-02-07T05:59:43;13.50;;;9.68;;
39314;SDS011;28703;44.412;11.918;2023-02-07T06:02:17;12.10;;;9.02;;
39314;SDS011;28703;44.412;11.918;2023-02-07T06:05:18;13.75;;;9.13;;
39314;SDS011;28703;44.412;11.918;2023-02-07T06:08:04;12.68;;;9.45;;
39314;SDS011;28703;44.412;11.918;2023-02-07T06:10:34;17.48;;;9.95;;
39314;SDS011;28703;44.412;11.918;2023-02-07T06:13:00;14.93;;;11.55;;
39314;SDS011;28703;44.412;11.918;2023-02-07T06:15:25;17.73;;;12.07;;
39314;SDS011;28703;44.412;11.918;2023-02-07T06:20:54;18.35;;;10.57;;
39314;SDS011;28703;44.412;11.918;2023-02-07T06:23:31;15.25;;;11.20;;
39314;SDS011;28703;44.412;11.918;2023-02-07T06:26:24;15.60;;;10.65;;
39314;SDS011;28703;44.412;11.918;2023-02-07T06:31:49;20.30;;;10.13;;
39314;SDS011;28703;44.412;11.918;2023-02-07T06:34:36;18.83;;;10.02;;
39314;SDS011;28703;44.412;11.918;2023-02-07T06:37:12;15.00;;;9.43;;
39314;SDS011;28703;44.412;11.918;2023-02-07T06:39:40;17.38;;;9.63;;
39314;SDS011;28703;44.412;11.918;2023-02-07T06:42:35;19.05;;;9.05;;
39314;SDS011;28703;44.412;11.918;2023-02-07T06:45:27;13.77;;;8.77;;
39314;SDS011;28703;44.412;11.918;2023-02-07T06:47:58;11.32;;;8.50;;
39314;SDS011;28703;44.412;11.918;2023-02-07T06:50:50;15.45;;;9.60;;
39314;SDS011;28703;44.412;11.918;2023-02-07T06:53:22;16.50;;;9.40;;
39314;SDS011;28703;44.412;11.918;2023-02-07T06:55:53;15.98;;;9.25;;
39314;SDS011;28703;44.412;11.918;2023-02-07T06:58:32;20.25;;;9.43;;
39314;SDS011;28703;44.412;11.918;2023-02-07T07:01:07;15.27;;;8.98;;
39314;SDS011;28703;44.412;11.918;2023-02-07T07:03:57;16.42;;;9.32;;
39314;SDS011;28703;44.412;11.918;2023-02-07T07:06:23;16.58;;;9.57;;
39314;SDS011;28703;44.412;11.918;2023-02-07T07:09:07;15.73;;;8.65;;
39314;SDS011;28703;44.412;11.918;2023-02-07T07:11:59;17.25;;;9.70;;
39314;SDS011;28703;44.412;11.918;2023-02-07T07:15:16;16.33;;;9.48;;
39314;SDS011;28703;44.412;11.918;2023-02-07T07:17:49;17.95;;;9.10;;
39314;SDS011;28703;44.412;11.918;2023-02-07T07:20:16;25.80;;;9.48;;
39314;SDS011;28703;44.412;11.918;2023-02-07T07:23:08;13.75;;;8.63;;
39314;SDS011;28703;44.412;11.918;2023-02-07T07:25:39;17.33;;;10.55;;
39314;SDS011;28703;44.412;11.918;2023-02-07T07:28:31;28.63;;;10.45;;
39314;SDS011;28703;44.412;11.918;2023-02-07T07:31:25;16.15;;;9.35;;
39314;SDS011;28703;44.412;11.918;2023-02-07T07:33:56;16.98;;;10.00;;
39314;SDS011;28703;44.412;11.918;2023-02-07T07:36:22;19.73;;;10.63;;
39314;SDS011;28703;44.412;11.918;2023-02-07T07:38:49;12.90;;;9.40;;
39314;SDS011;28703;44.412;11.918;2023-02-07T07:41:17;16.25;;;10.57;;
39314;SDS011;28703;44.412;11.918;2023-02-07T07:44:11;17.33;;;10.07;;
39314;SDS011;28703;44.412;11.918;2023-02-07T07:47:07;19.15;;;9.98;;
39314;SDS011;28703;44.412;11.918;2023-02-07T07:50:01;18.23;;;10.82;;
39314;SDS011;28703;44.412;11.918;2023-02-07T07:52:30;17.23;;;10.98;;
39314;SDS011;28703;44.412;11.918;2023-02-07T07:55:02;17.75;;;11.35;;
39314;SDS011;28703;44.412;11.918;2023-02-07T07:57:36;18.45;;;10.98;;
39314;SDS011;28703;44.412;11.918;2023-02-07T08:00:05;20.90;;;11.63;;
39314;SDS011;28703;44.412;11.918;2023-02-07T08:02:54;20.48;;;11.95;;
39314;SDS011;28703;44.412;11.918;2023-02-07T08:05:38;22.10;;;13.10;;
39314;SDS011;28703;44.412;11.918;2023-02-07T08:08:07;21.50;;;12.85;;
39314;SDS011;28703;44.412;11.918;2023-02-07T08:10:33;23.23;;;12.95;;
39314;SDS011;28703;44.412;11.918;2023-02-07T08:13:24;20.25;;;13.00;;
39314;SDS011;28703;44.412;11.918;2023-02-07T08:15:50;23.73;;;13.05;;
39314;SDS011;28703;44.412;11.918;2023-02-07T08:18:23;22.98;;;13.63;;
39314;SDS011;28703;44.412;11.918;2023-02-07T08:20:53;21.98;;;13.90;;
39314;SDS011;28703;44.412;11.918;2023-02-07T08:23:30;20.88;;;12.90;;
39314;SDS011;28703;44.412;11.918;2023-02-07T08:25:59;22.52;;;13.35;;
39314;SDS011;28703;44.412;11.918;2023-02-07T08:28:26;22.90;;;13.82;;
39314;SDS011;28703;44.412;11.918;2023-02-07T08:31:10;26.25;;;13.70;;
39314;SDS011;28703;44.412;11.918;2023-02-07T08:33:53;26.83;;;13.80;;
39314;SDS011;28703;44.412;11.918;2023-02-07T08:36:21;20.95;;;14.27;;
39314;SDS011;28703;44.412;11.918;2023-02-07T08:38:59;22.70;;;13.57;;
39314;SDS011;28703;44.412;11.918;2023-02-07T08:41:34;24.25;;;13.73;;
39314;SDS011;28703;44.412;11.918;2023-02-07T08:44:31;22.52;;;13.57;;
39314;SDS011;28703;44.412;11.918;2023-02-07T08:46:58;26.42;;;15.07;;
39314;SDS011;28703;44.412;11.918;2023-02-07T08:49:49;26.65;;;14.90;;
39314;SDS011;28703;44.412;11.918;2023-02-07T08:52:24;21.27;;;14.43;;
39314;SDS011;28703;44.412;11.918;2023-02-07T08:55:03;22.98;;;14.95;;
39314;SDS011;28703;44.412;11.918;2023-02-07T08:57:59;23.83;;;14.88;;
39314;SDS011;28703;44.412;11.918;2023-02-07T09:01:22;24.08;;;14.18;;
39314;SDS011;28703;44.412;11.918;2023-02-07T09:03:54;25.08;;;14.55;;
39314;SDS011;28703;44.412;11.918;2023-02-07T09:06:59;23.88;;;14.40;;
39314;SDS011;28703;44.412;11.918;2023-02-07T09:09:35;20.85;;;14.63;;
39314;SDS011;28703;44.412;11.918;2023-02-07T09:12:03;19.70;;;14.18;;
39314;SDS011;28703;44.412;11.918;2023-02-07T09:14:57;22.10;;;13.77;;
39314;SDS011;28703;44.412;11.918;2023-02-07T09:17:23;22.05;;;14.00;;
39314;SDS011;28703;44.412;11.918;2023-02-07T09:19:49;26.08;;;15.20;;
39314;SDS011;28703;44.412;11.918;2023-02-07T09:22:23;25.10;;;14.95;;
39314;SDS011;28703;44.412;11.918;2023-02-07T09:24:54;19.75;;;14.38;;
39314;SDS011;28703;44.412;11.918;2023-02-07T09:27:29;24.95;;;14.40;;
39314;SDS011;28703;44.412;11.918;2023-02-07T09:29:55;20.77;;;14.95;;
39314;SDS011;28703;44.412;11.918;2023-02-07T09:32:44;20.35;;;15.02;;
39314;SDS011;28703;44.412;11.918;2023-02-07T09:35:13;24.67;;;14.52;;
39314;SDS011;28703;44.412;11.918;2023-02-07T09:37:43;22.20;;;15.25;;
39314;SDS011;28703;44.412;11.918;2023-02-07T09:40:14;21.10;;;13.70;;
39314;SDS011;28703;44.412;11.918;2023-02-07T09:45:45;21.92;;;15.57;;
39314;SDS011;28703;44.412;11.918;2023-02-07T09:48:18;27.85;;;16.55;;
39314;SDS011;28703;44.412;11.918;2023-02-07T09:50:59;23.40;;;14.98;;
39314;SDS011;28703;44.412;11.918;2023-02-07T09:53:40;24.88;;;15.68;;
39314;SDS011;28703;44.412;11.918;2023-02-07T09:59:49;30.27;;;16.52;;
39314;SDS011;28703;44.412;11.918;2023-02-07T10:02:40;24.25;;;16.23;;
39314;SDS011;28703;44.412;11.918;2023-02-07T10:05:42;23.52;;;15.55;;
39314;SDS011;28703;44.412;11.918;2023-02-07T10:08:53;19.80;;;14.73;;
39314;SDS011;28703;44.412;11.918;2023-02-07T10:11:48;22.77;;;15.00;;
39314;SDS011;28703;44.412;11.918;2023-02-07T10:21:13;24.60;;;15.55;;
39314;SDS011;28703;44.412;11.918;2023-02-07T10:27:28;25.08;;;17.13;;
39314;SDS011;28703;44.412;11.918;2023-02-07T10:30:16;27.75;;;16.70;;
39314;SDS011;28703;44.412;11.918;2023-02-07T10:33:13;20.88;;;14.43;;
39314;SDS011;28703;44.412;11.918;2023-02-07T10:36:12;28.92;;;15.07;;
39314;SDS011;28703;44.412;11.918;2023-02-07T10:39:22;27.25;;;15.80;;
39314;SDS011;28703;44.412;11.918;2023-02-07T10:42:14;26.30;;;15.98;;
39314;SDS011;28703;44.412;11.918;2023-02-07T10:44:44;19.70;;;14.13;;
39314;SDS011;28703;44.412;11.918;2023-02-07T10:47:27;28.25;;;15.18;;
39314;SDS011;28703;44.412;11.918;2023-02-07T11:02:49;19.05;;;14.70;;
39314;SDS011;28703;44.412;11.918;2023-02-07T11:05:29;25.88;;;15.27;;
39314;SDS011;28703;44.412;11.918;2023-02-07T11:10:47;20.98;;;14.63;;
39314;SDS011;28703;44.412;11.918;2023-02-07T11:16:02;18.95;;;12.93;;
39314;SDS011;28703;44.412;11.918;2023-02-07T11:19:00;22.60;;;13.07;;
39314;SDS011;28703;44.412;11.918;2023-02-07T11:26:00;20.55;;;13.13;;
39314;SDS011;28703;44.412;11.918;2023-02-07T11:28:53;20.30;;;12.57;;
39314;SDS011;28703;44.412;11.918;2023-02-07T11:31:53;17.58;;;11.45;;
39314;SDS011;28703;44.412;11.918;2023-02-07T11:34:46;15.13;;;11.20;;
39314;SDS011;28703;44.412;11.918;2023-02-07T11:37:39;18.88;;;11.82;;
39314;SDS011;28703;44.412;11.918;2023-02-07T11:40:36;17.55;;;11.45;;
39314;SDS011;28703;44.412;11.918;2023-02-07T11:44:10;15.27;;;10.20;;
39314;SDS011;28703;44.412;11.918;2023-02-07T11:46:49;15.98;;;9.52;;
39314;SDS011;28703;44.412;11.918;2023-02-07T11:58:56;16.45;;;10.18;;
39314;SDS011;28703;44.412;11.918;2023-02-07T12:02:12;18.42;;;10.43;;
39314;SDS011;28703;44.412;11.918;2023-02-07T12:11:24;16.60;;;10.75;;
39314;SDS011;28703;44.412;11.918;2023-02-07T12:14:05;15.63;;;10.55;;
39314;SDS011;28703;44.412;11.918;2023-02-07T12:16:58;17.27;;;11.43;;
39314;SDS011;28703;44.412;11.918;2023-02-07T12:25:28;16.48;;;11.25;;
39314;SDS011;28703;44.412;11.918;2023-02-07T12:50:20;22.55;;;13.85;;
39314;SDS011;28703;44.412;11.918;2023-02-07T12:59:24;21.15;;;13.27;;
39314;SDS011;28703;44.412;11.918;2023-02-07T13:15:52;18.75;;;13.13;;
39314;SDS011;28703;44.412;11.918;2023-02-07T13:22:09;19.70;;;12.98;;
39314;SDS011;28703;44.412;11.918;2023-02-07T13:24:42;16.45;;;10.55;;
39314;SDS011;28703;44.412;11.918;2023-02-07T13:27:19;14.25;;;11.35;;
39314;SDS011;28703;44.412;11.918;2023-02-07T13:30:28;19.25;;;11.55;;
39314;SDS011;28703;44.412;11.918;2023-02-07T13:33:27;17.90;;;11.60;;
39314;SDS011;28703;44.412;11.918;2023-02-07T13:45:53;14.45;;;9.98;;
39314;SDS011;28703;44.412;11.918;2023-02-07T13:48:46;17.23;;;10.02;;
39314;SDS011;28703;44.412;11.918;2023-02-07T13:51:53;15.18;;;9.18;;
39314;SDS011;28703;44.412;11.918;2023-02-07T13:57:54;18.10;;;10.57;;
39314;SDS011;28703;44.412;11.918;2023-02-07T14:01:17;15.95;;;9.43;;
39314;SDS011;28703;44.412;11.918;2023-02-07T14:07:56;14.30;;;9.77;;
39314;SDS011;28703;44.412;11.918;2023-02-07T14:10:57;16.67;;;10.13;;
39314;SDS011;28703;44.412;11.918;2023-02-07T14:19:59;11.38;;;8.93;;
39314;SDS011;28703;44.412;11.918;2023-02-07T14:25:19;17.73;;;9.43;;
39314;SDS011;28703;44.412;11.918;2023-02-07T14:31:27;15.65;;;9.25;;
39314;SDS011;28703;44.412;11.918;2023-02-07T14:34:31;12.07;;;9.88;;
39314;SDS011;28703;44.412;11.918;2023-02-07T14:43:18;16.20;;;10.55;;
39314;SDS011;28703;44.412;11.918;2023-02-07T14:46:07;16.42;;;9.73;;
39314;SDS011;28703;44.412;11.918;2023-02-07T15:00:23;14.18;;;9.85;;
39314;SDS011;28703;44.412;11.918;2023-02-07T15:03:17;16.33;;;10.00;;
39314;SDS011;28703;44.412;11.918;2023-02-07T15:06:15;11.75;;;10.38;;
39314;SDS011;28703;44.412;11.918;2023-02-07T15:11:59;12.93;;;10.18;;
39314;SDS011;28703;44.412;11.918;2023-02-07T15:14:52;15.00;;;10.00;;
39314;SDS011;28703;44.412;11.918;2023-02-07T15:18:01;12.35;;;9.10;;
39314;SDS011;28703;44.412;11.918;2023-02-07T15:20:43;11.02;;;9.60;;
39314;SDS011;28703;44.412;11.918;2023-02-07T15:27:38;11.38;;;9.52;;
39314;SDS011;28703;44.412;11.918;2023-02-07T15:39:55;13.35;;;10.48;;
39314;SDS011;28703;44.412;11.918;2023-02-07T15:50:06;16.02;;;12.27;;
39314;SDS011;28703;44.412;11.918;2023-02-07T15:53:17;15.43;;;11.93;;
39314;SDS011;28703;44.412;11.918;2023-02-07T15:55:56;14.95;;;11.20;;
39314;SDS011;28703;44.412;11.918;2023-02-07T15:59:08;14.95;;;12.32;;
39314;SDS011;28703;44.412;11.918;2023-02-07T16:05:11;15.38;;;11.45;;
39314;SDS011;28703;44.412;11.918;2023-02-07T16:08:05;18.20;;;12.00;;
39314;SDS011;28703;44.412;11.918;2023-02-07T16:10:51;13.30;;;11.07;;
39314;SDS011;28703;44.412;11.918;2023-02-07T16:13:19;15.80;;;12.43;;
39314;SDS011;28703;44.412;11.918;2023-02-07T16:18:42;19.25;;;13.50;;
39314;SDS011;28703;44.412;11.918;2023-02-07T16:21:30;19.42;;;13.60;;
39314;SDS011;28703;44.412;11.918;2023-02-07T16:27:06;22.23;;;15.10;;
39314;SDS011;28703;44.412;11.918;2023-02-07T16:29:39;21.80;;;14.70;;
39314;SDS011;28703;44.412;11.918;2023-02-07T16:32:12;22.92;;;16.08;;
39314;SDS011;28703;44.412;11.918;2023-02-07T16:34:47;32.45;;;18.52;;
39314;SDS011;28703;44.412;11.918;2023-02-07T16:39:41;53.55;;;27.70;;
39314;SDS011;28703;44.412;11.918;2023-02-07T16:42:18;39.53;;;24.30;;
39314;SDS011;28703;44.412;11.918;2023-02-07T16:44:45;45.00;;;27.50;;
39314;SDS011;28703;44.412;11.918;2023-02-07T16:47:12;36.05;;;24.63;;
39314;SDS011;28703;44.412;11.918;2023-02-07T16:49:42;41.38;;;25.80;;
39314;SDS011;28703;44.412;11.918;2023-02-07T16:52:13;34.47;;;20.98;;
39314;SDS011;28703;44.412;11.918;2023-02-07T16:54:46;25.75;;;17.70;;
39314;SDS011;28703;44.412;11.918;2023-02-07T17:00:06;31.45;;;17.05;;
39314;SDS011;28703;44.412;11.918;2023-02-07T17:02:32;26.75;;;16.08;;
39314;SDS011;28703;44.412;11.918;2023-02-07T17:05:02;33.55;;;19.48;;
39314;SDS011;28703;44.412;11.918;2023-02-07T17:07:28;24.95;;;17.77;;
39314;SDS011;28703;44.412;11.918;2023-02-07T17:10:00;24.17;;;15.18;;
39314;SDS011;28703;44.412;11.918;2023-02-07T17:12:28;24.27;;;14.38;;
39314;SDS011;28703;44.412;11.918;2023-02-07T17:15:13;21.23;;;15.63;;
39314;SDS011;28703;44.412;11.918;2023-02-07T17:20:22;31.80;;;17.95;;
39314;SDS011;28703;44.412;11.918;2023-02-07T17:22:59;26.73;;;19.10;;
39314;SDS011;28703;44.412;11.918;2023-02-07T17:25:26;30.80;;;19.48;;
39314;SDS011;28703;44.412;11.918;2023-02-07T17:27:54;27.05;;;18.75;;
39314;SDS011;28703;44.412;11.918;2023-02-07T17:30:40;26.50;;;18.30;;
39314;SDS011;28703;44.412;11.918;2023-02-07T17:33:17;32.33;;;19.27;;
39314;SDS011;28703;44.412;11.918;2023-02-07T17:35:51;27.65;;;18.38;;
39314;SDS011;28703;44.412;11.918;2023-02-07T17:38:23;28.50;;;18.10;;
39314;SDS011;28703;44.412;11.918;2023-02-07T17:40:56;28.17;;;18.48;;
39314;SDS011;28703;44.412;11.918;2023-02-07T17:43:22;25.17;;;17.20;;
39314;SDS011;28703;44.412;11.918;2023-02-07T17:45:48;24.95;;;18.77;;
39314;SDS011;28703;44.412;11.918;2023-02-07T17:48:14;21.77;;;16.15;;
39314;SDS011;28703;44.412;11.918;2023-02-07T17:50:48;26.40;;;18.33;;
39314;SDS011;28703;44.412;11.918;2023-02-07T17:53:20;22.95;;;16.00;;
39314;SDS011;28703;44.412;11.918;2023-02-07T17:55:47;29.45;;;17.42;;
39314;SDS011;28703;44.412;11.918;2023-02-07T17:58:14;28.30;;;18.48;;
39314;SDS011;28703;44.412;11.918;2023-02-07T18:00:42;35.78;;;19.73;;
39314;SDS011;28703;44.412;11.918;2023-02-07T18:03:08;33.65;;;20.85;;
39314;SDS011;28703;44.412;11.918;2023-02-07T18:05:35;27.92;;;19.10;;
39314;SDS011;28703;44.412;11.918;2023-02-07T18:08:13;33.65;;;19.88;;
39314;SDS011;28703;44.412;11.918;2023-02-07T18:10:47;32.17;;;19.33;;
39314;SDS011;28703;44.412;11.918;2023-02-07T18:13:20;28.15;;;18.83;;
39314;SDS011;28703;44.412;11.918;2023-02-07T18:15:50;28.55;;;19.08;;
39314;SDS011;28703;44.412;11.918;2023-02-07T18:18:16;27.42;;;19.35;;
39314;SDS011;28703;44.412;11.918;2023-02-07T18:20:42;35.97;;;18.13;;
39314;SDS011;28703;44.412;11.918;2023-02-07T18:23:26;34.05;;;19.63;;
39314;SDS011;28703;44.412;11.918;2023-02-07T18:26:11;29.70;;;18.55;;
39314;SDS011;28703;44.412;11.918;2023-02-07T18:28:53;29.92;;;20.35;;
39314;SDS011;28703;44.412;11.918;2023-02-07T18:31:22;30.55;;;20.60;;
39314;SDS011;28703;44.412;11.918;2023-02-07T18:33:52;34.63;;;20.15;;
39314;SDS011;28703;44.412;11.918;2023-02-07T18:36:19;31.52;;;18.55;;
39314;SDS011;28703;44.412;11.918;2023-02-07T18:38:46;27.25;;;19.38;;
39314;SDS011;28703;44.412;11.918;2023-02-07T18:41:14;36.25;;;20.75;;
39314;SDS011;28703;44.412;11.918;2023-02-07T18:43:46;39.58;;;23.50;;
39314;SDS011;28703;44.412;11.918;2023-02-07T18:46:14;35.25;;;21.15;;
39314;SDS011;28703;44.412;11.918;2023-02-07T18:48:42;34.60;;;20.77;;
39314;SDS011;28703;44.412;11.918;2023-02-07T18:51:14;32.38;;;19.58;;
39314;SDS011;28703;44.412;11.918;2023-02-07T18:53:42;31.70;;;19.25;;
39314;SDS011;28703;44.412;11.918;2023-02-07T18:56:12;44.55;;;29.08;;
39314;SDS011;28703;44.412;11.918;2023-02-07T18:58:50;66.63;;;40.95;;
39314;SDS011;28703;44.412;11.918;2023-02-07T19:01:18;96.00;;;53.67;;
39314;SDS011;28703;44.412;11.918;2023-02-07T19:04:08;92.70;;;56.15;;
39314;SDS011;28703;44.412;11.918;2023-02-07T19:06:34;93.70;;;59.22;;
39314;SDS011;28703;44.412;11.918;2023-02-07T19:09:00;68.10;;;43.63;;
39314;SDS011;28703;44.412;11.918;2023-02-07T19:11:44;52.45;;;36.10;;
39314;SDS011;28703;44.412;11.918;2023-02-07T19:18:01;34.65;;;24.90;;
39314;SDS011;28703;44.412;11.918;2023-02-07T19:20:48;39.92;;;24.17;;
39314;SDS011;28703;44.412;11.918;2023-02-07T19:26:16;46.05;;;24.45;;
39314;SDS011;28703;44.412;11.918;2023-02-07T19:28:43;39.08;;;24.00;;
39314;SDS011;28703;44.412;11.918;2023-02-07T19:31:10;32.33;;;23.35;;
39314;SDS011;28703;44.412;11.918;2023-02-07T19:33:45;41.90;;;24.60;;
39314;SDS011;28703;44.412;11.918;2023-02-07T19:36:13;35.00;;;24.90;;
39314;SDS011;28703;44.412;11.918;2023-02-07T19:38:42;38.03;;;26.33;;
39314;SDS011;28703;44.412;11.918;2023-02-07T19:41:08;40.13;;;28.55;;
39314;SDS011;28703;44.412;11.918;2023-02-07T19:43:34;40.65;;;27.05;;
39314;SDS011;28703;44.412;11.918;2023-02-07T19:48:46;42.45;;;26.38;;
39314;SDS011;28703;44.412;11.918;2023-02-07T19:51:17;60.67;;;41.40;;
39314;SDS011;28703;44.412;11.918;2023-02-07T19:53:47;45.83;;;29.75;;
39314;SDS011;28703;44.412;11.918;2023-02-07T19:56:33;64.65;;;38.92;;